sensor_id;sensor_type;location;lat;lon;timestamp;P1;durP1;ratioP1;P2;durP2;ratioP2
77814;SDS011;67002;52.124;21.210;2023-03-01T00:01:19;23.60;;;13.40;;
77814;SDS011;67002;52.124;21.210;2023-03-01T00:03:48;18.00;;;11.40;;
77814;SDS011;67002;52.124;21.210;2023-03-01T00:06:17;21.90;;;12.80;;
77814;SDS011;67002;52.124;21.210;2023-03-01T00:08:46;21.70;;;12.80;;
77814;SDS011;67002;52.124;21.210;2023-03-01T00:11:16;29.50;;;18.00;;
77814;SDS011;67002;52.124;21.210;2023-03-01T00:13:46;32.60;;;17.90;;
77814;SDS011;67002;52.124;21.210;2023-03-01T00:16:16;24.10;;;15.60;;
77814;SDS011;67002;52.124;21.210;2023-03-01T00:18:46;23.70;;;14.10;;
77814;SDS011;67002;52.124;21.210;2023-03-01T00:21:14;29.00;;;16.40;;
77814;SDS011;67002;52.124;21.210;2023-03-01T00:23:42;26.20;;;16.30;;
77814;SDS011;67002;52.124;21.210;2023-03-01T00:26:16;28.00;;;15.90;;
77814;SDS011;67002;52.124;21.210;2023-03-01T00:28:45;26.10;;;15.90;;
77814;SDS011;67002;52.124;21.210;2023-03-01T00:31:15;24.60;;;15.00;;
77814;SDS011;67002;52.124;21.210;2023-03-01T00:33:44;21.60;;;13.60;;
77814;SDS011;67002;52.124;21.210;2023-03-01T00:36:14;25.10;;;15.40;;
77814;SDS011;67002;52.124;21.210;2023-03-01T00:38:43;33.20;;;19.00;;
77814;SDS011;67002;52.124;21.210;2023-03-01T00:41:14;32.30;;;18.40;;
77814;SDS011;67002;52.124;21.210;2023-03-01T00:43:44;32.30;;;18.90;;
77814;SDS011;67002;52.124;21.210;2023-03-01T00:46:13;27.30;;;17.20;;
77814;SDS011;67002;52.124;21.210;2023-03-01T00:48:43;25.50;;;15.90;;
77814;SDS011;67002;52.124;21.210;2023-03-01T00:51:12;26.30;;;15.60;;
77814;SDS011;67002;52.124;21.210;2023-03-01T00:53:42;32.10;;;17.60;;
77814;SDS011;67002;52.124;21.210;2023-03-01T00:56:12;28.50;;;16.60;;
77814;SDS011;67002;52.124;21.210;2023-03-01T00:58:41;26.00;;;16.30;;
77814;SDS011;67002;52.124;21.210;2023-03-01T01:01:10;24.90;;;14.90;;
77814;SDS011;67002;52.124;21.210;2023-03-01T01:03:45;24.00;;;14.10;;
77814;SDS011;67002;52.124;21.210;2023-03-01T01:06:16;28.90;;;15.40;;
77814;SDS011;67002;52.124;21.210;2023-03-01T01:08:45;31.00;;;19.10;;
77814;SDS011;67002;52.124;21.210;2023-03-01T01:11:14;29.50;;;18.70;;
77814;SDS011;67002;52.124;21.210;2023-03-01T01:13:44;27.80;;;16.90;;
77814;SDS011;67002;52.124;21.210;2023-03-01T01:16:14;27.20;;;17.60;;
77814;SDS011;67002;52.124;21.210;2023-03-01T01:18:43;26.20;;;17.20;;
77814;SDS011;67002;52.124;21.210;2023-03-01T01:21:13;27.90;;;17.70;;
77814;SDS011;67002;52.124;21.210;2023-03-01T01:23:44;28.70;;;17.00;;
77814;SDS011;67002;52.124;21.210;2023-03-01T01:26:14;29.20;;;16.90;;
77814;SDS011;67002;52.124;21.210;2023-03-01T01:28:43;28.00;;;16.40;;
77814;SDS011;67002;52.124;21.210;2023-03-01T01:31:11;25.20;;;15.90;;
77814;SDS011;67002;52.124;21.210;2023-03-01T01:33:40;34.80;;;19.40;;
77814;SDS011;67002;52.124;21.210;2023-03-01T01:36:08;31.10;;;20.70;;
77814;SDS011;67002;52.124;21.210;2023-03-01T01:38:38;32.90;;;18.00;;
77814;SDS011;67002;52.124;21.210;2023-03-01T01:41:09;28.60;;;16.80;;
77814;SDS011;67002;52.124;21.210;2023-03-01T01:43:39;30.30;;;16.80;;
77814;SDS011;67002;52.124;21.210;2023-03-01T01:46:12;31.20;;;18.10;;
77814;SDS011;67002;52.124;21.210;2023-03-01T01:48:54;28.20;;;17.00;;
77814;SDS011;67002;52.124;21.210;2023-03-01T01:51:27;30.10;;;17.20;;
77814;SDS011;67002;52.124;21.210;2023-03-01T01:54:07;26.80;;;14.60;;
77814;SDS011;67002;52.124;21.210;2023-03-01T01:56:38;24.90;;;14.10;;
77814;SDS011;67002;52.124;21.210;2023-03-01T01:59:08;23.50;;;12.70;;
77814;SDS011;67002;52.124;21.210;2023-03-01T02:01:36;22.10;;;13.00;;
77814;SDS011;67002;52.124;21.210;2023-03-01T02:04:05;20.40;;;12.90;;
77814;SDS011;67002;52.124;21.210;2023-03-01T02:06:35;22.50;;;13.10;;
77814;SDS011;67002;52.124;21.210;2023-03-01T02:09:06;36.00;;;20.50;;
77814;SDS011;67002;52.124;21.210;2023-03-01T02:11:37;35.80;;;20.60;;
77814;SDS011;67002;52.124;21.210;2023-03-01T02:14:09;31.10;;;19.40;;
77814;SDS011;67002;52.124;21.210;2023-03-01T02:16:37;31.80;;;18.50;;
77814;SDS011;67002;52.124;21.210;2023-03-01T02:19:05;26.90;;;17.50;;
77814;SDS011;67002;52.124;21.210;2023-03-01T02:21:38;27.00;;;16.20;;
77814;SDS011;67002;52.124;21.210;2023-03-01T02:24:15;26.70;;;15.40;;
77814;SDS011;67002;52.124;21.210;2023-03-01T02:26:49;27.80;;;16.90;;
77814;SDS011;67002;52.124;21.210;2023-03-01T02:39:25;28.00;;;17.10;;
77814;SDS011;67002;52.124;21.210;2023-03-01T02:41:55;31.20;;;19.10;;
77814;SDS011;67002;52.124;21.210;2023-03-01T02:44:25;31.50;;;18.00;;
77814;SDS011;67002;52.124;21.210;2023-03-01T02:46:55;27.40;;;16.20;;
77814;SDS011;67002;52.124;21.210;2023-03-01T02:49:25;23.60;;;15.30;;
77814;SDS011;67002;52.124;21.210;2023-03-01T02:55:04;25.20;;;14.60;;
77814;SDS011;67002;52.124;21.210;2023-03-01T02:57:35;22.30;;;14.50;;
77814;SDS011;67002;52.124;21.210;2023-03-01T03:00:08;23.90;;;14.90;;
77814;SDS011;67002;52.124;21.210;2023-03-01T03:02:46;20.50;;;14.10;;
77814;SDS011;67002;52.124;21.210;2023-03-01T03:05:20;21.40;;;14.50;;
77814;SDS011;67002;52.124;21.210;2023-03-01T03:07:55;26.00;;;16.20;;
77814;SDS011;67002;52.124;21.210;2023-03-01T03:10:25;28.40;;;17.50;;
77814;SDS011;67002;52.124;21.210;2023-03-01T03:12:56;31.20;;;17.40;;
77814;SDS011;67002;52.124;21.210;2023-03-01T03:15:26;28.30;;;16.20;;
77814;SDS011;67002;52.124;21.210;2023-03-01T03:17:55;29.20;;;15.80;;
77814;SDS011;67002;52.124;21.210;2023-03-01T03:20:26;25.10;;;15.20;;
77814;SDS011;67002;52.124;21.210;2023-03-01T03:22:55;28.10;;;15.80;;
77814;SDS011;67002;52.124;21.210;2023-03-01T03:25:25;24.10;;;16.30;;
77814;SDS011;67002;52.124;21.210;2023-03-01T03:27:55;22.90;;;14.50;;
77814;SDS011;67002;52.124;21.210;2023-03-01T03:30:25;24.20;;;14.50;;
77814;SDS011;67002;52.124;21.210;2023-03-01T03:32:54;24.50;;;14.30;;
77814;SDS011;67002;52.124;21.210;2023-03-01T03:37:52;25.90;;;15.70;;
77814;SDS011;67002;52.124;21.210;2023-03-01T03:40:30;27.50;;;16.10;;
77814;SDS011;67002;52.124;21.210;2023-03-01T03:43:01;24.80;;;16.10;;
77814;SDS011;67002;52.124;21.210;2023-03-01T03:45:29;25.00;;;14.70;;
77814;SDS011;67002;52.124;21.210;2023-03-01T03:48:00;22.50;;;13.80;;
77814;SDS011;67002;52.124;21.210;2023-03-01T03:50:29;25.30;;;14.20;;
77814;SDS011;67002;52.124;21.210;2023-03-01T03:52:59;20.10;;;13.30;;
77814;SDS011;67002;52.124;21.210;2023-03-01T03:55:28;22.60;;;13.60;;
77814;SDS011;67002;52.124;21.210;2023-03-01T03:57:57;26.70;;;16.30;;
77814;SDS011;67002;52.124;21.210;2023-03-01T04:00:28;29.40;;;17.10;;
77814;SDS011;67002;52.124;21.210;2023-03-01T04:02:57;30.20;;;17.40;;
77814;SDS011;67002;52.124;21.210;2023-03-01T04:05:25;23.50;;;15.20;;
77814;SDS011;67002;52.124;21.210;2023-03-01T04:07:54;25.20;;;14.80;;
77814;SDS011;67002;52.124;21.210;2023-03-01T04:10:34;24.30;;;14.70;;
77814;SDS011;67002;52.124;21.210;2023-03-01T04:13:04;20.90;;;13.80;;
77814;SDS011;67002;52.124;21.210;2023-03-01T04:15:33;20.60;;;13.40;;
77814;SDS011;67002;52.124;21.210;2023-03-01T04:18:02;20.80;;;13.20;;
77814;SDS011;67002;52.124;21.210;2023-03-01T04:20:32;23.40;;;13.90;;
77814;SDS011;67002;52.124;21.210;2023-03-01T04:23:02;20.00;;;12.80;;
77814;SDS011;67002;52.124;21.210;2023-03-01T04:25:38;20.30;;;12.00;;
77814;SDS011;67002;52.124;21.210;2023-03-01T04:28:07;21.40;;;12.70;;
77814;SDS011;67002;52.124;21.210;2023-03-01T04:30:35;21.40;;;11.90;;
77814;SDS011;67002;52.124;21.210;2023-03-01T04:33:04;28.00;;;17.00;;
77814;SDS011;67002;52.124;21.210;2023-03-01T04:35:34;30.40;;;18.10;;
77814;SDS011;67002;52.124;21.210;2023-03-01T04:38:04;30.70;;;16.90;;
77814;SDS011;67002;52.124;21.210;2023-03-01T04:40:33;27.00;;;15.30;;
77814;SDS011;67002;52.124;21.210;2023-03-01T04:43:01;22.90;;;14.70;;
77814;SDS011;67002;52.124;21.210;2023-03-01T04:45:32;25.20;;;15.80;;
77814;SDS011;67002;52.124;21.210;2023-03-01T04:48:01;27.50;;;15.60;;
77814;SDS011;67002;52.124;21.210;2023-03-01T04:50:30;26.90;;;15.20;;
77814;SDS011;67002;52.124;21.210;2023-03-01T04:52:58;23.40;;;14.70;;
77814;SDS011;67002;52.124;21.210;2023-03-01T04:55:27;26.60;;;16.60;;
77814;SDS011;67002;52.124;21.210;2023-03-01T04:57:56;25.40;;;15.30;;
77814;SDS011;67002;52.124;21.210;2023-03-01T05:00:24;29.30;;;17.80;;
77814;SDS011;67002;52.124;21.210;2023-03-01T05:02:53;25.00;;;15.30;;
77814;SDS011;67002;52.124;21.210;2023-03-01T05:05:24;26.00;;;16.00;;
77814;SDS011;67002;52.124;21.210;2023-03-01T05:07:55;28.10;;;14.80;;
77814;SDS011;67002;52.124;21.210;2023-03-01T05:10:24;21.80;;;14.10;;
77814;SDS011;67002;52.124;21.210;2023-03-01T05:12:55;25.20;;;14.80;;
77814;SDS011;67002;52.124;21.210;2023-03-01T05:15:25;26.20;;;14.70;;
77814;SDS011;67002;52.124;21.210;2023-03-01T05:17:55;21.10;;;13.20;;
77814;SDS011;67002;52.124;21.210;2023-03-01T05:20:26;21.80;;;14.10;;
77814;SDS011;67002;52.124;21.210;2023-03-01T05:22:56;23.50;;;13.10;;
77814;SDS011;67002;52.124;21.210;2023-03-01T05:25:25;22.80;;;14.60;;
77814;SDS011;67002;52.124;21.210;2023-03-01T05:27:59;25.60;;;17.00;;
77814;SDS011;67002;52.124;21.210;2023-03-01T05:30:31;28.80;;;16.50;;
77814;SDS011;67002;52.124;21.210;2023-03-01T05:33:00;23.00;;;14.80;;
77814;SDS011;67002;52.124;21.210;2023-03-01T05:35:29;27.50;;;13.80;;
77814;SDS011;67002;52.124;21.210;2023-03-01T05:38:00;23.10;;;14.60;;
77814;SDS011;67002;52.124;21.210;2023-03-01T05:40:29;25.00;;;14.70;;
77814;SDS011;67002;52.124;21.210;2023-03-01T05:42:57;25.40;;;15.40;;
77814;SDS011;67002;52.124;21.210;2023-03-01T05:45:26;24.30;;;15.20;;
77814;SDS011;67002;52.124;21.210;2023-03-01T05:47:55;26.90;;;14.70;;
77814;SDS011;67002;52.124;21.210;2023-03-01T05:50:24;23.80;;;12.80;;
77814;SDS011;67002;52.124;21.210;2023-03-01T05:52:57;27.40;;;14.60;;
77814;SDS011;67002;52.124;21.210;2023-03-01T05:55:28;28.70;;;15.90;;
77814;SDS011;67002;52.124;21.210;2023-03-01T05:57:58;26.30;;;16.30;;
77814;SDS011;67002;52.124;21.210;2023-03-01T06:00:27;27.70;;;15.30;;
77814;SDS011;67002;52.124;21.210;2023-03-01T06:02:57;25.70;;;14.20;;
77814;SDS011;67002;52.124;21.210;2023-03-01T06:07:53;23.30;;;14.20;;
77814;SDS011;67002;52.124;21.210;2023-03-01T06:10:22;23.10;;;15.00;;
77814;SDS011;67002;52.124;21.210;2023-03-01T06:12:50;22.00;;;13.20;;
77814;SDS011;67002;52.124;21.210;2023-03-01T06:15:19;19.90;;;12.50;;
77814;SDS011;67002;52.124;21.210;2023-03-01T06:17:48;22.50;;;14.20;;
77814;SDS011;67002;52.124;21.210;2023-03-01T06:20:17;24.70;;;14.80;;
77814;SDS011;67002;52.124;21.210;2023-03-01T06:22:47;26.00;;;15.00;;
77814;SDS011;67002;52.124;21.210;2023-03-01T06:25:16;23.40;;;14.30;;
77814;SDS011;67002;52.124;21.210;2023-03-01T06:27:46;25.60;;;14.90;;
77814;SDS011;67002;52.124;21.210;2023-03-01T06:30:16;22.30;;;13.90;;
77814;SDS011;67002;52.124;21.210;2023-03-01T06:32:45;22.90;;;13.90;;
77814;SDS011;67002;52.124;21.210;2023-03-01T06:35:14;22.40;;;13.50;;
77814;SDS011;67002;52.124;21.210;2023-03-01T06:37:44;22.90;;;13.20;;
77814;SDS011;67002;52.124;21.210;2023-03-01T06:42:42;18.00;;;11.30;;
77814;SDS011;67002;52.124;21.210;2023-03-01T06:45:14;21.80;;;12.70;;
77814;SDS011;67002;52.124;21.210;2023-03-01T06:47:42;22.30;;;13.20;;
77814;SDS011;67002;52.124;21.210;2023-03-01T06:50:11;17.00;;;11.80;;
77814;SDS011;67002;52.124;21.210;2023-03-01T06:52:40;18.80;;;13.00;;
77814;SDS011;67002;52.124;21.210;2023-03-01T06:55:10;18.70;;;12.50;;
77814;SDS011;67002;52.124;21.210;2023-03-01T06:57:39;21.70;;;12.90;;
77814;SDS011;67002;52.124;21.210;2023-03-01T07:00:09;16.60;;;10.70;;
77814;SDS011;67002;52.124;21.210;2023-03-01T07:02:39;18.90;;;11.10;;
77814;SDS011;67002;52.124;21.210;2023-03-01T07:05:08;17.00;;;10.10;;
77814;SDS011;67002;52.124;21.210;2023-03-01T07:07:37;15.00;;;10.30;;
77814;SDS011;67002;52.124;21.210;2023-03-01T07:10:06;16.90;;;10.10;;
77814;SDS011;67002;52.124;21.210;2023-03-01T07:12:36;10.20;;;6.70;;
77814;SDS011;67002;52.124;21.210;2023-03-01T07:15:05;19.50;;;13.40;;
77814;SDS011;67002;52.124;21.210;2023-03-01T07:17:36;17.00;;;11.40;;
77814;SDS011;67002;52.124;21.210;2023-03-01T07:20:05;17.80;;;12.40;;
77814;SDS011;67002;52.124;21.210;2023-03-01T07:22:34;23.70;;;14.90;;
77814;SDS011;67002;52.124;21.210;2023-03-01T07:25:02;20.40;;;12.60;;
77814;SDS011;67002;52.124;21.210;2023-03-01T07:27:31;18.30;;;12.20;;
77814;SDS011;67002;52.124;21.210;2023-03-01T07:30:00;12.30;;;8.90;;
77814;SDS011;67002;52.124;21.210;2023-03-01T07:32:28;17.90;;;11.30;;
77814;SDS011;67002;52.124;21.210;2023-03-01T07:34:56;18.50;;;12.30;;
77814;SDS011;67002;52.124;21.210;2023-03-01T07:37:25;22.20;;;12.90;;
77814;SDS011;67002;52.124;21.210;2023-03-01T07:42:21;18.20;;;11.20;;
77814;SDS011;67002;52.124;21.210;2023-03-01T07:44:49;18.90;;;12.80;;
77814;SDS011;67002;52.124;21.210;2023-03-01T07:47:17;12.60;;;8.90;;
77814;SDS011;67002;52.124;21.210;2023-03-01T07:49:45;17.60;;;12.50;;
77814;SDS011;67002;52.124;21.210;2023-03-01T07:52:13;17.60;;;11.50;;
77814;SDS011;67002;52.124;21.210;2023-03-01T07:54:42;15.70;;;12.00;;
77814;SDS011;67002;52.124;21.210;2023-03-01T07:57:11;19.70;;;12.50;;
77814;SDS011;67002;52.124;21.210;2023-03-01T07:59:39;17.80;;;11.70;;
77814;SDS011;67002;52.124;21.210;2023-03-01T08:02:08;16.00;;;10.50;;
77814;SDS011;67002;52.124;21.210;2023-03-01T08:07:04;15.80;;;11.90;;
77814;SDS011;67002;52.124;21.210;2023-03-01T08:09:34;16.50;;;10.20;;
77814;SDS011;67002;52.124;21.210;2023-03-01T08:12:04;16.30;;;10.70;;
77814;SDS011;67002;52.124;21.210;2023-03-01T08:14:32;16.70;;;11.90;;
77814;SDS011;67002;52.124;21.210;2023-03-01T08:17:01;14.70;;;11.10;;
77814;SDS011;67002;52.124;21.210;2023-03-01T08:19:30;15.70;;;11.00;;
77814;SDS011;67002;52.124;21.210;2023-03-01T08:22:00;16.10;;;11.20;;
77814;SDS011;67002;52.124;21.210;2023-03-01T08:24:29;14.70;;;11.10;;
77814;SDS011;67002;52.124;21.210;2023-03-01T08:26:57;16.30;;;11.40;;
77814;SDS011;67002;52.124;21.210;2023-03-01T08:29:25;15.80;;;11.30;;
77814;SDS011;67002;52.124;21.210;2023-03-01T08:31:54;14.50;;;9.80;;
77814;SDS011;67002;52.124;21.210;2023-03-01T08:34:22;15.80;;;11.50;;
77814;SDS011;67002;52.124;21.210;2023-03-01T08:36:50;16.70;;;11.30;;
77814;SDS011;67002;52.124;21.210;2023-03-01T08:41:47;12.50;;;8.30;;
77814;SDS011;67002;52.124;21.210;2023-03-01T08:44:15;14.00;;;9.30;;
77814;SDS011;67002;52.124;21.210;2023-03-01T08:46:44;12.60;;;9.40;;
77814;SDS011;67002;52.124;21.210;2023-03-01T08:49:13;13.10;;;9.90;;
77814;SDS011;67002;52.124;21.210;2023-03-01T08:51:42;15.00;;;9.90;;
77814;SDS011;67002;52.124;21.210;2023-03-01T08:54:12;14.60;;;8.60;;
77814;SDS011;67002;52.124;21.210;2023-03-01T08:56:42;14.90;;;10.40;;
77814;SDS011;67002;52.124;21.210;2023-03-01T08:59:11;15.00;;;9.70;;
77814;SDS011;67002;52.124;21.210;2023-03-01T09:01:39;11.00;;;6.90;;
77814;SDS011;67002;52.124;21.210;2023-03-01T09:04:10;14.90;;;10.20;;
77814;SDS011;67002;52.124;21.210;2023-03-01T09:06:38;13.30;;;9.80;;
77814;SDS011;67002;52.124;21.210;2023-03-01T09:09:10;15.40;;;9.60;;
77814;SDS011;67002;52.124;21.210;2023-03-01T09:11:42;16.20;;;9.60;;
77814;SDS011;67002;52.124;21.210;2023-03-01T09:14:12;12.60;;;9.40;;
77814;SDS011;67002;52.124;21.210;2023-03-01T09:16:41;9.50;;;6.30;;
77814;SDS011;67002;52.124;21.210;2023-03-01T09:19:10;9.80;;;6.90;;
77814;SDS011;67002;52.124;21.210;2023-03-01T09:21:38;12.50;;;8.10;;
77814;SDS011;67002;52.124;21.210;2023-03-01T09:24:11;10.60;;;7.20;;
77814;SDS011;67002;52.124;21.210;2023-03-01T09:26:41;11.40;;;7.80;;
77814;SDS011;67002;52.124;21.210;2023-03-01T09:29:13;9.20;;;6.70;;
77814;SDS011;67002;52.124;21.210;2023-03-01T09:31:41;9.60;;;6.60;;
77814;SDS011;67002;52.124;21.210;2023-03-01T09:36:38;10.10;;;6.40;;
77814;SDS011;67002;52.124;21.210;2023-03-01T09:39:06;9.30;;;7.40;;
77814;SDS011;67002;52.124;21.210;2023-03-01T09:44:16;9.90;;;6.40;;
77814;SDS011;67002;52.124;21.210;2023-03-01T09:46:51;9.90;;;6.40;;
77814;SDS011;67002;52.124;21.210;2023-03-01T09:49:20;12.70;;;7.80;;
77814;SDS011;67002;52.124;21.210;2023-03-01T09:51:55;12.20;;;8.40;;
77814;SDS011;67002;52.124;21.210;2023-03-01T09:54:26;13.30;;;8.00;;
77814;SDS011;67002;52.124;21.210;2023-03-01T09:59:29;13.00;;;6.50;;
77814;SDS011;67002;52.124;21.210;2023-03-01T10:02:02;11.10;;;6.80;;
77814;SDS011;67002;52.124;21.210;2023-03-01T10:04:41;11.90;;;8.10;;
77814;SDS011;67002;52.124;21.210;2023-03-01T10:07:16;12.00;;;7.30;;
77814;SDS011;67002;52.124;21.210;2023-03-01T10:09:53;10.90;;;7.50;;
77814;SDS011;67002;52.124;21.210;2023-03-01T10:12:23;11.10;;;7.40;;
77814;SDS011;67002;52.124;21.210;2023-03-01T10:14:55;9.90;;;6.90;;
77814;SDS011;67002;52.124;21.210;2023-03-01T10:17:32;10.80;;;6.80;;
77814;SDS011;67002;52.124;21.210;2023-03-01T10:20:15;7.80;;;5.60;;
77814;SDS011;67002;52.124;21.210;2023-03-01T10:22:46;8.80;;;7.10;;
77814;SDS011;67002;52.124;21.210;2023-03-01T10:25:20;8.70;;;6.30;;
77814;SDS011;67002;52.124;21.210;2023-03-01T10:27:58;8.50;;;5.50;;
77814;SDS011;67002;52.124;21.210;2023-03-01T10:30:32;7.90;;;5.80;;
77814;SDS011;67002;52.124;21.210;2023-03-01T10:33:05;8.80;;;6.00;;
77814;SDS011;67002;52.124;21.210;2023-03-01T10:35:42;8.00;;;6.20;;
77814;SDS011;67002;52.124;21.210;2023-03-01T10:40:50;12.30;;;7.20;;
77814;SDS011;67002;52.124;21.210;2023-03-01T10:43:19;10.00;;;6.30;;
77814;SDS011;67002;52.124;21.210;2023-03-01T10:45:48;8.50;;;6.00;;
77814;SDS011;67002;52.124;21.210;2023-03-01T10:48:17;8.40;;;5.90;;
77814;SDS011;67002;52.124;21.210;2023-03-01T10:50:48;10.60;;;6.20;;
77814;SDS011;67002;52.124;21.210;2023-03-01T10:53:21;9.80;;;6.20;;
77814;SDS011;67002;52.124;21.210;2023-03-01T10:55:57;7.10;;;5.20;;
77814;SDS011;67002;52.124;21.210;2023-03-01T10:58:29;8.20;;;6.00;;
77814;SDS011;67002;52.124;21.210;2023-03-01T11:00:59;9.10;;;6.20;;
77814;SDS011;67002;52.124;21.210;2023-03-01T11:03:29;8.40;;;6.40;;
77814;SDS011;67002;52.124;21.210;2023-03-01T11:05:59;8.70;;;6.90;;
77814;SDS011;67002;52.124;21.210;2023-03-01T11:08:30;11.50;;;6.30;;
77814;SDS011;67002;52.124;21.210;2023-03-01T11:11:04;8.40;;;6.60;;
77814;SDS011;67002;52.124;21.210;2023-03-01T11:13:34;7.70;;;6.20;;
77814;SDS011;67002;52.124;21.210;2023-03-01T11:16:06;7.50;;;5.20;;
77814;SDS011;67002;52.124;21.210;2023-03-01T11:18:37;6.90;;;5.40;;
77814;SDS011;67002;52.124;21.210;2023-03-01T11:21:15;6.50;;;5.20;;
77814;SDS011;67002;52.124;21.210;2023-03-01T11:23:43;8.90;;;6.00;;
77814;SDS011;67002;52.124;21.210;2023-03-01T11:26:13;6.80;;;5.70;;
77814;SDS011;67002;52.124;21.210;2023-03-01T11:28:43;3.70;;;2.80;;
77814;SDS011;67002;52.124;21.210;2023-03-01T11:31:13;7.20;;;6.00;;
77814;SDS011;67002;52.124;21.210;2023-03-01T11:33:45;8.50;;;5.50;;
77814;SDS011;67002;52.124;21.210;2023-03-01T11:36:18;8.40;;;6.30;;
77814;SDS011;67002;52.124;21.210;2023-03-01T11:38:51;10.40;;;7.10;;
77814;SDS011;67002;52.124;21.210;2023-03-01T11:41:21;8.60;;;6.50;;
77814;SDS011;67002;52.124;21.210;2023-03-01T11:43:53;8.60;;;6.50;;
77814;SDS011;67002;52.124;21.210;2023-03-01T11:49:31;7.80;;;5.80;;
77814;SDS011;67002;52.124;21.210;2023-03-01T11:52:21;7.70;;;6.20;;
77814;SDS011;67002;52.124;21.210;2023-03-01T11:54:57;9.00;;;5.80;;
77814;SDS011;67002;52.124;21.210;2023-03-01T11:57:43;6.70;;;4.90;;
77814;SDS011;67002;52.124;21.210;2023-03-01T12:00:27;8.30;;;6.00;;
77814;SDS011;67002;52.124;21.210;2023-03-01T12:03:29;7.70;;;4.90;;
77814;SDS011;67002;52.124;21.210;2023-03-01T12:06:24;6.50;;;4.70;;
77814;SDS011;67002;52.124;21.210;2023-03-01T12:09:13;6.10;;;4.00;;
77814;SDS011;67002;52.124;21.210;2023-03-01T12:11:56;8.20;;;3.80;;
77814;SDS011;67002;52.124;21.210;2023-03-01T12:14:42;7.70;;;4.40;;
77814;SDS011;67002;52.124;21.210;2023-03-01T12:17:21;8.10;;;4.70;;
77814;SDS011;67002;52.124;21.210;2023-03-01T12:20:05;6.20;;;4.50;;
77814;SDS011;67002;52.124;21.210;2023-03-01T12:22:39;6.00;;;4.50;;
77814;SDS011;67002;52.124;21.210;2023-03-01T12:25:16;7.40;;;5.20;;
77814;SDS011;67002;52.124;21.210;2023-03-01T12:28:00;6.00;;;4.80;;
77814;SDS011;67002;52.124;21.210;2023-03-01T12:30:37;7.90;;;5.20;;
77814;SDS011;67002;52.124;21.210;2023-03-01T12:33:17;6.60;;;5.00;;
77814;SDS011;67002;52.124;21.210;2023-03-01T12:35:56;7.20;;;4.80;;
77814;SDS011;67002;52.124;21.210;2023-03-01T12:38:33;5.80;;;3.80;;
77814;SDS011;67002;52.124;21.210;2023-03-01T12:41:26;9.60;;;4.80;;
77814;SDS011;67002;52.124;21.210;2023-03-01T12:44:03;8.30;;;5.00;;
77814;SDS011;67002;52.124;21.210;2023-03-01T12:46:41;5.90;;;4.00;;
77814;SDS011;67002;52.124;21.210;2023-03-01T12:49:15;6.00;;;3.90;;
77814;SDS011;67002;52.124;21.210;2023-03-01T12:51:46;6.20;;;4.60;;
77814;SDS011;67002;52.124;21.210;2023-03-01T12:54:27;6.90;;;4.40;;
77814;SDS011;67002;52.124;21.210;2023-03-01T12:57:02;6.90;;;4.30;;
77814;SDS011;67002;52.124;21.210;2023-03-01T12:59:37;5.40;;;3.60;;
77814;SDS011;67002;52.124;21.210;2023-03-01T13:02:14;6.90;;;4.20;;
77814;SDS011;67002;52.124;21.210;2023-03-01T13:04:53;4.90;;;2.90;;
77814;SDS011;67002;52.124;21.210;2023-03-01T13:07:34;6.10;;;4.70;;
77814;SDS011;67002;52.124;21.210;2023-03-01T13:10:11;5.50;;;4.10;;
77814;SDS011;67002;52.124;21.210;2023-03-01T13:12:51;6.30;;;4.50;;
77814;SDS011;67002;52.124;21.210;2023-03-01T13:15:32;6.90;;;4.90;;
77814;SDS011;67002;52.124;21.210;2023-03-01T13:18:25;6.20;;;4.60;;
77814;SDS011;67002;52.124;21.210;2023-03-01T13:21:02;7.90;;;5.20;;
77814;SDS011;67002;52.124;21.210;2023-03-01T13:23:35;6.10;;;4.50;;
77814;SDS011;67002;52.124;21.210;2023-03-01T13:26:09;6.00;;;4.60;;
77814;SDS011;67002;52.124;21.210;2023-03-01T13:28:49;6.30;;;4.60;;
77814;SDS011;67002;52.124;21.210;2023-03-01T13:37:22;8.00;;;4.90;;
77814;SDS011;67002;52.124;21.210;2023-03-01T13:39:58;8.50;;;4.90;;
77814;SDS011;67002;52.124;21.210;2023-03-01T13:42:36;6.40;;;4.90;;
77814;SDS011;67002;52.124;21.210;2023-03-01T13:48:03;6.70;;;5.20;;
77814;SDS011;67002;52.124;21.210;2023-03-01T13:50:43;5.80;;;4.50;;
77814;SDS011;67002;52.124;21.210;2023-03-01T13:53:17;6.90;;;6.00;;
77814;SDS011;67002;52.124;21.210;2023-03-01T13:55:50;7.50;;;5.60;;
77814;SDS011;67002;52.124;21.210;2023-03-01T13:58:28;5.80;;;4.60;;
77814;SDS011;67002;52.124;21.210;2023-03-01T14:01:01;6.80;;;4.50;;
77814;SDS011;67002;52.124;21.210;2023-03-01T14:03:40;6.50;;;4.70;;
77814;SDS011;67002;52.124;21.210;2023-03-01T14:06:13;5.80;;;4.30;;
77814;SDS011;67002;52.124;21.210;2023-03-01T14:08:49;7.80;;;4.70;;
77814;SDS011;67002;52.124;21.210;2023-03-01T14:14:43;7.20;;;4.90;;
77814;SDS011;67002;52.124;21.210;2023-03-01T14:17:21;6.70;;;4.50;;
77814;SDS011;67002;52.124;21.210;2023-03-01T14:20:01;5.40;;;4.70;;
77814;SDS011;67002;52.124;21.210;2023-03-01T14:22:39;6.90;;;4.50;;
77814;SDS011;67002;52.124;21.210;2023-03-01T14:25:20;5.30;;;4.20;;
77814;SDS011;67002;52.124;21.210;2023-03-01T14:27:57;7.40;;;4.60;;
77814;SDS011;67002;52.124;21.210;2023-03-01T14:30:35;6.50;;;4.80;;
77814;SDS011;67002;52.124;21.210;2023-03-01T14:33:18;6.50;;;5.00;;
77814;SDS011;67002;52.124;21.210;2023-03-01T14:35:58;5.80;;;4.90;;
77814;SDS011;67002;52.124;21.210;2023-03-01T14:38:32;11.10;;;5.40;;
77814;SDS011;67002;52.124;21.210;2023-03-01T14:41:06;7.10;;;4.60;;
77814;SDS011;67002;52.124;21.210;2023-03-01T14:43:39;7.70;;;4.90;;
77814;SDS011;67002;52.124;21.210;2023-03-01T14:46:18;6.70;;;4.30;;
77814;SDS011;67002;52.124;21.210;2023-03-01T14:48:52;6.90;;;4.80;;
77814;SDS011;67002;52.124;21.210;2023-03-01T14:51:26;6.00;;;4.60;;
77814;SDS011;67002;52.124;21.210;2023-03-01T14:53:58;5.70;;;4.60;;
77814;SDS011;67002;52.124;21.210;2023-03-01T14:56:32;7.10;;;4.70;;
77814;SDS011;67002;52.124;21.210;2023-03-01T14:59:14;6.80;;;4.20;;
77814;SDS011;67002;52.124;21.210;2023-03-01T15:01:46;6.80;;;5.00;;
77814;SDS011;67002;52.124;21.210;2023-03-01T15:04:18;6.20;;;4.60;;
77814;SDS011;67002;52.124;21.210;2023-03-01T15:06:51;7.50;;;4.90;;
77814;SDS011;67002;52.124;21.210;2023-03-01T15:09:24;5.70;;;4.90;;
77814;SDS011;67002;52.124;21.210;2023-03-01T15:11:56;6.80;;;4.90;;
77814;SDS011;67002;52.124;21.210;2023-03-01T15:14:29;10.30;;;5.00;;
77814;SDS011;67002;52.124;21.210;2023-03-01T15:17:21;8.00;;;5.20;;
77814;SDS011;67002;52.124;21.210;2023-03-01T15:19:59;9.60;;;5.30;;
77814;SDS011;67002;52.124;21.210;2023-03-01T15:22:31;7.20;;;5.40;;
77814;SDS011;67002;52.124;21.210;2023-03-01T15:25:03;10.20;;;5.40;;
77814;SDS011;67002;52.124;21.210;2023-03-01T15:27:46;9.10;;;6.30;;
77814;SDS011;67002;52.124;21.210;2023-03-01T15:30:20;7.10;;;5.30;;
77814;SDS011;67002;52.124;21.210;2023-03-01T15:35:57;10.20;;;5.40;;
77814;SDS011;67002;52.124;21.210;2023-03-01T15:38:31;10.60;;;5.80;;
77814;SDS011;67002;52.124;21.210;2023-03-01T15:41:21;10.00;;;4.80;;
77814;SDS011;67002;52.124;21.210;2023-03-01T15:43:54;15.80;;;5.50;;